createdAt,value
2018-06-25T00:02:00.429Z,67.68
2018-06-25T00:04:26.724Z,67.91
2018-06-25T00:06:53.036Z,68.12
2018-06-25T00:09:19.333Z,68.53
2018-06-25T00:11:45.621Z,68.77
2018-06-25T00:14:11.916Z,68.85
2018-06-25T00:16:38.204Z,68.95
2018-06-25T00:19:04.531Z,69.39
2018-06-25T00:21:30.823Z,69.27
2018-06-25T00:23:57.148Z,69.57
2018-06-25T00:26:23.402Z,69.74
2018-06-25T00:28:49.692Z,69.83
2018-06-25T00:31:16.025Z,69.95
2018-06-25T00:33:42.311Z,69.98
2018-06-25T00:36:08.603Z,70.17
2018-06-25T00:38:34.893Z,70.61
2018-06-25T00:41:01.186Z,70.74
2018-06-25T00:43:27.476Z,70.89
2018-06-25T00:45:53.775Z,71.50
2018-06-25T00:48:20.109Z,71.79
2018-06-25T00:50:46.391Z,71.98
2018-06-25T00:53:12.692Z,71.81
2018-06-25T00:55:38.992Z,71.18
2018-06-25T00:58:05.278Z,70.78
2018-06-25T01:00:31.569Z,71.00
2018-06-25T01:02:57.856Z,70.89
2018-06-25T01:05:24.170Z,70.92
2018-06-25T01:07:50.460Z,70.44
2018-06-25T01:10:16.759Z,70.20
2018-06-25T01:12:43.058Z,70.29
2018-06-25T01:15:09.342Z,70.77
2018-06-25T01:17:35.631Z,70.75
2018-06-25T01:20:01.921Z,70.57
2018-06-25T01:22:28.239Z,70.84
2018-06-25T01:24:54.534Z,70.92
2018-06-25T01:27:20.831Z,70.99
2018-06-25T01:29:47.119Z,71.36
2018-06-25T01:32:13.407Z,71.34
2018-06-25T01:34:39.753Z,71.37
2018-06-25T01:37:06.034Z,71.64
2018-06-25T01:39:32.334Z,71.33
2018-06-25T01:41:58.624Z,71.08
2018-06-25T01:44:24.914Z,71.04
2018-06-25T01:46:51.207Z,71.35
2018-06-25T01:49:17.502Z,71.15
2018-06-25T01:51:43.786Z,71.17
2018-06-25T01:54:10.075Z,71.28
2018-06-25T01:56:36.366Z,71.29
2018-06-25T01:59:02.662Z,71.57
2018-06-25T02:01:28.947Z,70.75
2018-06-25T02:03:55.283Z,70.64
2018-06-25T02:06:21.567Z,70.85
2018-06-25T02:08:47.850Z,70.94
2018-06-25T02:11:14.145Z,70.90
2018-06-25T02:13:40.430Z,71.39
2018-06-25T02:16:06.720Z,71.16
2018-06-25T02:18:33.012Z,71.60
2018-06-25T02:20:59.298Z,72.18
2018-06-25T02:23:25.597Z,72.88
2018-06-25T02:25:51.913Z,73.31
2018-06-25T02:28:18.200Z,74.04
2018-06-25T02:30:44.496Z,74.21
2018-06-25T02:33:10.785Z,74.56
2018-06-25T02:35:37.073Z,75.23
2018-06-25T02:38:03.399Z,75.22
2018-06-25T02:40:29.693Z,75.21
2018-06-25T02:42:56.016Z,75.21
2018-06-25T02:45:22.307Z,75.31
2018-06-25T02:47:48.594Z,75.47
2018-06-25T02:50:14.883Z,75.37
2018-06-25T02:52:41.166Z,75.88
2018-06-25T02:55:07.454Z,76.40
2018-06-25T02:57:33.743Z,77.03
2018-06-25T03:00:00.055Z,77.76
2018-06-25T03:02:26.349Z,78.08
2018-06-25T03:04:52.636Z,78.68
2018-06-25T03:07:18.952Z,78.43
2018-06-25T03:09:45.244Z,77.81
2018-06-25T03:12:11.539Z,77.16
2018-06-25T03:14:37.832Z,76.28
2018-06-25T03:17:04.126Z,76.37
2018-06-25T03:19:30.415Z,75.92
2018-06-25T03:21:56.744Z,76.30
2018-06-25T03:24:23.038Z,76.71
2018-06-25T03:26:49.322Z,76.44
2018-06-25T03:29:15.612Z,76.26
2018-06-25T03:31:41.903Z,76.00
2018-06-25T03:34:08.200Z,76.03
2018-06-25T03:36:34.493Z,75.63
2018-06-25T03:39:00.812Z,75.71
2018-06-25T03:41:27.100Z,75.57
2018-06-25T03:43:53.396Z,75.29
2018-06-25T03:46:19.685Z,74.97
2018-06-25T03:48:45.971Z,74.55
2018-06-25T03:51:12.266Z,74.62
2018-06-25T03:53:38.553Z,74.47
2018-06-25T03:56:04.871Z,74.32
2018-06-25T03:58:31.156Z,74.16
2018-06-25T04:00:57.481Z,74.18
2018-06-25T04:03:23.734Z,74.47
2018-06-25T04:05:50.027Z,74.35
2018-06-25T04:08:16.329Z,74.66
2018-06-25T04:10:42.624Z,74.61
2018-06-25T04:13:08.911Z,74.28
2018-06-25T04:15:35.201Z,74.04
2018-06-25T04:18:01.507Z,74.05
2018-06-25T04:20:27.792Z,73.91
2018-06-25T04:22:54.083Z,73.78
2018-06-25T04:25:20.378Z,73.39
2018-06-25T04:27:46.711Z,73.29
2018-06-25T04:30:13.010Z,73.29
2018-06-25T04:32:39.291Z,73.02
2018-06-25T04:35:05.579Z,73.25
2018-06-25T04:37:31.875Z,73.51
2018-06-25T04:39:58.170Z,73.86
2018-06-25T04:42:24.457Z,74.07
2018-06-25T04:44:50.788Z,73.99
2018-06-25T04:47:17.085Z,74.18
2018-06-25T04:49:43.380Z,74.70
2018-06-25T04:52:09.705Z,75.17
2018-06-25T04:54:35.990Z,75.17
2018-06-25T04:57:02.283Z,74.82
2018-06-25T04:59:28.566Z,75.06
2018-06-25T05:01:54.890Z,75.00
2018-06-25T05:04:21.180Z,74.78
2018-06-25T05:06:47.469Z,74.68
2018-06-25T05:09:13.768Z,74.41
2018-06-25T05:11:40.060Z,74.18
2018-06-25T05:14:06.354Z,74.36
2018-06-25T05:16:32.674Z,74.65
2018-06-25T05:18:58.984Z,74.51
2018-06-25T05:21:25.271Z,74.70
2018-06-25T05:23:51.583Z,74.44
2018-06-25T05:26:17.879Z,74.08
2018-06-25T05:28:44.172Z,73.30
2018-06-25T05:31:10.470Z,73.12
2018-06-25T05:33:36.776Z,73.24
2018-06-25T05:36:03.085Z,73.27
2018-06-25T05:38:29.377Z,73.30
2018-06-25T05:40:55.655Z,73.00
2018-06-25T05:43:21.948Z,72.14
2018-06-25T05:45:48.262Z,71.73
2018-06-25T05:48:14.556Z,71.29
2018-06-25T05:50:40.859Z,71.08
2018-06-25T05:53:07.191Z,69.49
2018-06-25T05:55:33.476Z,69.57
2018-06-25T05:57:59.763Z,69.64
2018-06-25T06:00:26.055Z,68.91
2018-06-25T06:02:52.342Z,69.27
2018-06-25T06:05:18.627Z,68.80
2018-06-25T06:07:44.915Z,68.67
2018-06-25T06:10:11.219Z,69.41
2018-06-25T06:12:37.507Z,68.93
2018-06-25T06:15:03.826Z,68.03
2018-06-25T06:17:30.123Z,68.56
2018-06-25T06:19:56.409Z,68.27
2018-06-25T06:22:22.701Z,67.93
2018-06-25T06:24:48.988Z,68.05
2018-06-25T06:27:15.284Z,68.13
2018-06-25T06:29:41.570Z,68.05
2018-06-25T06:32:07.911Z,68.44
2018-06-25T06:34:34.191Z,67.28
2018-06-25T06:37:00.475Z,68.33
2018-06-25T06:39:26.778Z,68.16
2018-06-25T06:41:53.076Z,67.99
2018-06-25T06:44:19.406Z,67.94
2018-06-25T06:46:45.712Z,68.79
2018-06-25T06:49:12.000Z,68.73
2018-06-25T06:51:38.294Z,68.56
2018-06-25T06:54:04.881Z,68.27
2018-06-25T06:56:31.172Z,68.41
2018-06-25T06:58:57.519Z,67.76
2018-06-25T07:01:23.749Z,66.78
2018-06-25T07:03:50.040Z,65.12
2018-06-25T07:06:16.402Z,65.60
2018-06-25T07:08:42.661Z,61.40
2018-06-25T07:11:08.953Z,61.82
2018-06-25T07:13:35.295Z,62.17
2018-06-25T07:16:01.591Z,63.28
2018-06-25T07:18:27.886Z,64.32
2018-06-25T07:20:54.176Z,63.45
2018-06-25T07:23:20.507Z,60.04
2018-06-25T07:25:46.791Z,60.33
2018-06-25T07:28:13.297Z,60.39
2018-06-25T07:30:39.596Z,59.07
2018-06-25T07:33:05.880Z,60.43
2018-06-25T07:35:32.173Z,61.51
2018-06-25T07:37:58.462Z,61.76
2018-06-25T07:40:24.755Z,61.77
2018-06-25T07:42:51.162Z,62.83
2018-06-25T07:45:17.455Z,63.36
2018-06-25T07:47:43.757Z,61.75
2018-06-25T07:50:10.163Z,58.80
2018-06-25T07:52:36.455Z,56.95
2018-06-25T07:55:02.745Z,55.71
2018-06-25T07:57:29.040Z,58.60
2018-06-25T07:59:55.326Z,57.26
2018-06-25T08:02:21.624Z,56.74
2018-06-25T08:04:47.917Z,58.91
2018-06-25T08:07:14.236Z,57.69
2018-06-25T08:09:40.521Z,57.31
2018-06-25T08:12:06.822Z,57.92
2018-06-25T08:14:33.110Z,59.38
2018-06-25T08:16:59.408Z,60.39
2018-06-25T08:19:25.787Z,60.50
2018-06-25T08:21:52.121Z,60.49
2018-06-25T08:24:18.425Z,60.51
2018-06-25T08:26:44.725Z,59.59
2018-06-25T08:29:11.012Z,59.73
2018-06-25T08:31:37.624Z,60.00
2018-06-25T08:34:03.966Z,60.18
2018-06-25T08:36:30.267Z,60.17
2018-06-25T08:38:56.557Z,60.30
2018-06-25T08:41:22.849Z,59.56
2018-06-25T08:43:49.138Z,60.31
2018-06-25T08:46:15.471Z,60.01
2018-06-25T08:48:41.724Z,54.96
2018-06-25T08:51:08.030Z,51.92
2018-06-25T08:53:34.318Z,49.26
2018-06-25T08:56:00.613Z,50.54
2018-06-25T08:58:27.048Z,49.69
2018-06-25T09:00:53.344Z,47.71
2018-06-25T09:03:19.788Z,46.86
2018-06-25T09:05:45.964Z,47.39
2018-06-25T09:08:12.257Z,48.16
2018-06-25T09:10:38.563Z,49.71
2018-06-25T09:13:04.863Z,51.34
2018-06-25T09:15:31.342Z,52.11
2018-06-25T09:17:57.477Z,52.77
2018-06-25T09:20:23.783Z,53.61
2018-06-25T09:22:50.073Z,54.05
2018-06-25T09:25:16.395Z,51.51
2018-06-25T09:27:42.692Z,48.57
2018-06-25T09:30:08.975Z,51.57
2018-06-25T09:32:35.269Z,52.66
2018-06-25T09:35:01.557Z,53.16
2018-06-25T09:37:27.855Z,53.62
2018-06-25T09:39:54.152Z,53.77
2018-06-25T09:42:20.480Z,51.90
2018-06-25T09:44:46.780Z,52.08
2018-06-25T09:47:13.080Z,51.26
2018-06-25T09:49:39.374Z,52.52
2018-06-25T09:52:05.673Z,51.20
2018-06-25T09:54:31.963Z,49.87
2018-06-25T09:56:58.247Z,51.62
2018-06-25T09:59:24.541Z,51.18
2018-06-25T10:01:50.834Z,51.13
2018-06-25T10:04:17.125Z,51.38
2018-06-25T10:06:43.420Z,51.85
2018-06-25T10:09:09.766Z,51.85
2018-06-25T10:11:36.077Z,51.21
2018-06-25T10:14:02.372Z,52.34
2018-06-25T10:16:28.671Z,51.04
2018-06-25T10:18:54.986Z,48.60
2018-06-25T10:21:21.287Z,48.69
2018-06-25T10:23:47.681Z,47.01
2018-06-25T10:26:13.980Z,46.73
2018-06-25T10:28:40.268Z,48.33
2018-06-25T10:31:06.559Z,49.42
2018-06-25T10:33:32.882Z,49.45
2018-06-25T10:35:59.170Z,50.41
2018-06-25T10:38:25.451Z,49.99
2018-06-25T10:40:51.744Z,50.47
2018-06-25T10:43:18.027Z,50.49
2018-06-25T10:45:44.324Z,50.89
2018-06-25T10:48:10.622Z,51.58
2018-06-25T10:50:36.941Z,51.44
2018-06-25T10:53:03.232Z,51.39
2018-06-25T10:55:29.519Z,49.80
2018-06-25T10:57:55.814Z,50.48
2018-06-25T11:00:22.286Z,48.28
2018-06-25T11:02:48.441Z,48.87
2018-06-25T11:05:14.733Z,49.07
2018-06-25T11:07:41.076Z,48.07
2018-06-25T11:10:07.412Z,47.60
2018-06-25T11:12:33.699Z,46.12
2018-06-25T11:15:00.000Z,45.25
2018-06-25T11:17:26.290Z,46.62
2018-06-25T11:19:52.595Z,46.69
2018-06-25T11:22:18.896Z,46.29
2018-06-25T11:24:45.185Z,45.91
2018-06-25T11:27:11.569Z,45.90
2018-06-25T11:29:37.775Z,46.36
2018-06-25T11:32:04.081Z,43.43
2018-06-25T11:34:30.398Z,45.05
2018-06-25T11:36:57.061Z,45.43
2018-06-25T11:39:23.386Z,45.17
2018-06-25T11:41:49.695Z,45.01
2018-06-25T11:44:15.966Z,43.38
2018-06-25T11:46:42.255Z,45.53
2018-06-25T11:49:08.539Z,45.06
2018-06-25T11:51:34.868Z,45.39
2018-06-25T11:54:01.146Z,46.50
2018-06-25T11:56:27.471Z,46.15
2018-06-25T11:58:53.757Z,46.63
2018-06-25T12:01:20.044Z,46.62
2018-06-25T12:03:46.332Z,47.29
2018-06-25T12:06:12.632Z,46.86
2018-06-25T12:08:38.924Z,46.76
2018-06-25T12:11:05.217Z,48.29
2018-06-25T12:13:31.537Z,49.05
2018-06-25T12:15:57.831Z,47.16
2018-06-25T12:18:24.120Z,47.86
2018-06-25T12:20:50.412Z,50.75
2018-06-25T12:23:16.698Z,52.20
2018-06-25T12:25:43.022Z,52.64
2018-06-25T12:28:09.308Z,53.61
2018-06-25T12:30:35.628Z,53.06
2018-06-25T12:33:01.928Z,53.21
2018-06-25T12:35:28.215Z,53.59
2018-06-25T12:37:54.575Z,53.12
2018-06-25T12:40:20.819Z,53.99
2018-06-25T12:42:47.112Z,54.52
2018-06-25T12:45:13.410Z,54.85
2018-06-25T12:47:39.722Z,55.83
2018-06-25T12:50:06.013Z,55.34
2018-06-25T12:52:32.304Z,54.94
2018-06-25T12:54:58.595Z,54.36
2018-06-25T12:57:24.892Z,54.10
2018-06-25T12:59:51.183Z,54.10
2018-06-25T13:02:17.472Z,54.14
2018-06-25T13:04:43.758Z,54.00
2018-06-25T13:07:10.070Z,53.98
2018-06-25T13:09:36.395Z,53.23
2018-06-25T13:12:02.679Z,53.06
2018-06-25T13:14:28.975Z,53.32
2018-06-25T13:16:55.262Z,53.99
2018-06-25T13:19:21.574Z,54.15
2018-06-25T13:21:47.859Z,54.37
2018-06-25T13:24:14.148Z,52.80
2018-06-25T13:26:40.463Z,50.53
2018-06-25T13:29:06.754Z,49.07
2018-06-25T13:31:33.101Z,47.02
2018-06-25T13:33:59.334Z,46.69
2018-06-25T13:36:25.722Z,47.25
2018-06-25T13:38:52.016Z,49.03
2018-06-25T13:41:18.389Z,51.07
2018-06-25T13:43:44.663Z,51.97
2018-06-25T13:46:10.960Z,48.96
2018-06-25T13:48:37.296Z,49.63
2018-06-25T13:51:03.583Z,48.51
2018-06-25T13:53:29.879Z,48.55
2018-06-25T13:55:56.172Z,48.80
2018-06-25T13:58:22.475Z,48.37
2018-06-25T14:00:48.796Z,48.97
2018-06-25T14:03:15.163Z,48.68
2018-06-25T14:05:41.493Z,47.57
2018-06-25T14:08:07.785Z,48.09
2018-06-25T14:10:34.071Z,47.18
2018-06-25T14:13:00.364Z,47.21
2018-06-25T14:15:26.664Z,47.49
2018-06-25T14:17:52.955Z,47.98
2018-06-25T14:20:19.251Z,47.60
2018-06-25T14:25:11.886Z,48.67
2018-06-25T14:27:38.175Z,48.73
2018-06-25T14:30:04.469Z,49.04
2018-06-25T14:32:30.754Z,47.74
2018-06-25T14:34:57.050Z,46.75
2018-06-25T14:37:23.587Z,47.05
2018-06-25T14:39:49.897Z,47.63
2018-06-25T14:42:16.194Z,48.53
2018-06-25T14:44:42.547Z,49.54
2018-06-25T14:47:08.835Z,43.28
2018-06-25T14:49:35.178Z,43.35
2018-06-25T14:52:01.431Z,43.50
2018-06-25T14:54:27.720Z,43.81
2018-06-25T14:56:54.056Z,44.33
2018-06-25T14:59:20.389Z,45.96
2018-06-25T15:01:46.660Z,42.71
2018-06-25T15:04:12.956Z,41.26
2018-06-25T15:09:05.549Z,41.41
2018-06-25T15:11:31.843Z,42.11
2018-06-25T15:13:58.179Z,43.02
2018-06-25T15:16:24.465Z,43.87
2018-06-25T15:18:50.764Z,43.90
2018-06-25T15:21:17.062Z,44.28
2018-06-25T15:23:43.354Z,43.91
2018-06-25T15:26:09.653Z,43.60
2018-06-25T15:28:35.939Z,44.99
2018-06-25T15:31:02.279Z,45.81
2018-06-25T15:33:28.574Z,46.26
2018-06-25T15:35:54.869Z,46.85
2018-06-25T15:38:21.159Z,47.65
2018-06-25T15:40:47.499Z,48.26
2018-06-25T15:43:13.801Z,48.61
2018-06-25T15:45:40.100Z,49.24
2018-06-25T15:48:06.453Z,48.75
2018-06-25T15:50:32.737Z,48.37
2018-06-25T15:52:59.029Z,48.99
2018-06-25T15:55:25.319Z,48.93
2018-06-25T15:57:51.642Z,49.31
2018-06-25T16:00:17.939Z,50.11
2018-06-25T16:02:44.240Z,50.33
2018-06-25T16:05:10.529Z,50.23
2018-06-25T16:07:36.814Z,50.42
2018-06-25T16:10:03.149Z,50.26
2018-06-25T16:12:29.446Z,50.68
2018-06-25T16:14:55.728Z,50.99
2018-06-25T16:17:22.020Z,51.20
2018-06-25T16:19:48.309Z,51.27
2018-06-25T16:22:14.616Z,50.52
2018-06-25T16:24:40.911Z,51.70
2018-06-25T16:27:07.201Z,51.44
2018-06-25T16:29:33.512Z,51.61
2018-06-25T16:31:59.793Z,52.02
2018-06-25T16:34:26.080Z,51.82
2018-06-25T16:36:52.377Z,52.13
2018-06-25T16:39:18.686Z,52.34
2018-06-25T16:41:46.050Z,51.85
2018-06-25T16:44:12.496Z,51.85
2018-06-25T16:46:38.796Z,51.74
2018-06-25T16:49:05.120Z,52.05
2018-06-25T16:51:31.406Z,52.00
2018-06-25T16:53:57.741Z,52.09
2018-06-25T16:56:24.043Z,52.45
2018-06-25T16:58:50.378Z,52.57
2018-06-25T17:01:16.674Z,52.16
2018-06-25T17:03:42.978Z,52.43
2018-06-25T17:06:09.276Z,52.29
2018-06-25T17:08:35.564Z,52.46
2018-06-25T17:11:01.901Z,52.59
2018-06-25T17:13:28.211Z,52.68
2018-06-25T17:15:54.505Z,53.15
2018-06-25T17:18:20.796Z,53.14
2018-06-25T17:20:47.145Z,53.09
2018-06-25T17:23:13.433Z,53.02
2018-06-25T17:25:39.725Z,53.17
2018-06-25T17:28:06.064Z,53.49
2018-06-25T17:30:32.412Z,54.56
2018-06-25T17:32:58.693Z,55.69
2018-06-25T17:35:24.984Z,56.11
2018-06-25T17:37:51.275Z,56.96
2018-06-25T17:40:17.580Z,57.20
2018-06-25T17:42:43.876Z,57.60
2018-06-25T17:45:11.162Z,57.97
2018-06-25T17:47:37.457Z,58.29
2018-06-25T17:50:03.783Z,59.00
2018-06-25T17:52:30.075Z,59.02
2018-06-25T17:54:56.374Z,59.08
2018-06-25T17:57:22.939Z,59.30
2018-06-25T17:59:49.246Z,59.30
2018-06-25T18:02:15.543Z,59.44
2018-06-25T18:04:41.836Z,59.45
2018-06-25T18:07:08.161Z,59.53
2018-06-25T18:09:34.446Z,59.90
2018-06-25T18:12:00.741Z,60.27
2018-06-25T18:14:27.042Z,60.43
2018-06-25T18:16:53.339Z,60.77
2018-06-25T18:19:19.655Z,61.24
2018-06-25T18:21:45.955Z,61.59
2018-06-25T18:24:12.240Z,62.40
2018-06-25T18:26:38.542Z,62.86
2018-06-25T18:29:04.844Z,63.37
2018-06-25T18:31:31.139Z,64.10
2018-06-25T18:33:57.439Z,64.00
2018-06-25T18:36:23.767Z,64.35
2018-06-25T18:38:50.059Z,64.30
2018-06-25T18:41:16.343Z,64.51
2018-06-25T18:43:42.648Z,64.68
2018-06-25T18:46:08.949Z,64.68
2018-06-25T18:48:35.254Z,64.68
2018-06-25T18:51:01.599Z,64.81
2018-06-25T18:53:27.871Z,64.69
2018-06-25T18:55:54.158Z,65.61
2018-06-25T18:58:20.466Z,64.36
2018-06-25T19:00:46.760Z,64.46
2018-06-25T19:03:13.090Z,64.57
2018-06-25T19:05:39.391Z,64.23
2018-06-25T19:08:06.672Z,64.16
2018-06-25T19:10:32.989Z,64.41
2018-06-25T19:12:59.284Z,64.56
2018-06-25T19:15:25.571Z,64.70
2018-06-25T19:17:51.961Z,64.77
2018-06-25T19:20:18.245Z,65.02
2018-06-25T19:22:44.678Z,65.05
2018-06-25T19:25:10.985Z,65.13
2018-06-25T19:27:37.338Z,65.22
2018-06-25T19:30:03.608Z,65.31
2018-06-25T19:32:29.904Z,65.37
2018-06-25T19:34:56.195Z,65.55
2018-06-25T19:37:22.479Z,65.54
2018-06-25T19:39:48.776Z,65.64
2018-06-25T19:42:15.133Z,66.00
2018-06-25T19:44:41.425Z,66.23
2018-06-25T19:47:07.740Z,66.62
2018-06-25T19:49:34.060Z,66.53
2018-06-25T19:52:00.356Z,66.72
2018-06-25T19:54:26.636Z,67.08
2018-06-25T19:56:53.005Z,67.36
2018-06-25T19:59:19.302Z,67.88
2018-06-25T20:01:45.629Z,67.83
2018-06-25T20:04:11.979Z,68.02
2018-06-25T20:06:38.268Z,68.32
2018-06-25T20:09:04.556Z,68.62
2018-06-25T20:11:30.845Z,68.82
2018-06-25T20:13:57.139Z,69.08
2018-06-25T20:16:23.505Z,69.02
2018-06-25T20:18:49.835Z,69.51
2018-06-25T20:21:16.126Z,69.11
2018-06-25T20:23:42.412Z,68.87
2018-06-25T20:26:08.806Z,68.83
2018-06-25T20:28:35.061Z,68.94
2018-06-25T20:31:01.351Z,69.07
2018-06-25T20:33:27.640Z,69.17
2018-06-25T20:35:53.971Z,69.02
2018-06-25T20:38:20.260Z,69.02
2018-06-25T20:40:46.561Z,68.74
2018-06-25T20:43:12.853Z,68.71
2018-06-25T20:45:39.141Z,68.46
2018-06-25T20:48:05.431Z,68.38
2018-06-25T20:50:31.722Z,68.20
2018-06-25T20:52:58.010Z,68.09
2018-06-25T20:55:24.326Z,67.95
2018-06-25T20:57:50.623Z,67.85
2018-06-25T21:00:16.906Z,67.84
2018-06-25T21:02:43.201Z,67.65
2018-06-25T21:05:09.503Z,67.82
2018-06-25T21:07:35.798Z,67.76
2018-06-25T21:10:02.116Z,67.71
2018-06-25T21:12:28.378Z,67.96
2018-06-25T21:14:54.662Z,68.03
2018-06-25T21:17:20.990Z,68.00
2018-06-25T21:19:47.288Z,67.90
2018-06-25T21:22:13.574Z,67.68
2018-06-25T21:24:39.869Z,66.85
2018-06-25T21:27:06.162Z,66.91
2018-06-25T21:29:32.487Z,66.84
2018-06-25T21:31:58.777Z,66.87
2018-06-25T21:34:25.069Z,67.33
2018-06-25T21:36:51.368Z,67.42
2018-06-25T21:39:17.662Z,67.51
2018-06-25T21:41:43.985Z,67.64
2018-06-25T21:44:10.281Z,68.06
2018-06-25T21:46:36.582Z,68.10
2018-06-25T21:49:02.878Z,68.25
2018-06-25T21:51:29.173Z,68.67
2018-06-25T21:53:55.491Z,68.71
2018-06-25T21:56:21.782Z,68.86
2018-06-25T21:58:48.080Z,69.22
2018-06-25T22:01:14.374Z,69.34
2018-06-25T22:03:40.655Z,69.72
2018-06-25T22:06:06.954Z,69.79
2018-06-25T22:08:33.291Z,69.97
2018-06-25T22:10:59.590Z,70.00
2018-06-25T22:13:25.884Z,69.79
2018-06-25T22:15:52.176Z,69.81
2018-06-25T22:18:18.462Z,69.57
2018-06-25T22:20:44.758Z,68.80
2018-06-25T22:23:11.049Z,68.63
2018-06-25T22:25:37.399Z,68.32
2018-06-25T22:28:03.636Z,68.04
2018-06-25T22:30:29.925Z,67.80
2018-06-25T22:32:56.221Z,67.69
2018-06-25T22:35:22.521Z,68.01
2018-06-25T22:37:48.834Z,67.87
2018-06-25T22:40:15.123Z,67.82
2018-06-25T22:42:41.429Z,67.96
2018-06-25T22:45:07.722Z,68.35
2018-06-25T22:47:34.007Z,68.51
2018-06-25T22:50:00.306Z,68.74
2018-06-25T22:52:26.597Z,68.92
2018-06-25T22:54:52.917Z,68.98
2018-06-25T22:57:19.213Z,69.05
2018-06-25T22:59:45.501Z,69.09
2018-06-25T23:02:11.796Z,69.22
2018-06-25T23:04:38.090Z,69.21
2018-06-25T23:07:04.391Z,69.24
2018-06-25T23:09:30.678Z,69.00
2018-06-25T23:11:57.012Z,68.89
2018-06-25T23:14:23.301Z,69.00
2018-06-25T23:16:49.595Z,69.04
2018-06-25T23:19:15.888Z,69.26
2018-06-25T23:21:42.176Z,69.41
2018-06-25T23:24:08.493Z,69.44
2018-06-25T23:26:34.778Z,69.35
2018-06-25T23:29:01.069Z,69.31
2018-06-25T23:31:27.358Z,69.33
2018-06-25T23:33:53.688Z,69.50
2018-06-25T23:36:19.943Z,69.78
2018-06-25T23:38:46.238Z,69.86
2018-06-25T23:41:12.538Z,69.67
2018-06-25T23:43:38.814Z,69.49
2018-06-25T23:46:05.144Z,69.63
2018-06-25T23:48:31.434Z,69.73
2018-06-25T23:50:57.731Z,69.79
2018-06-25T23:53:24.025Z,69.89
2018-06-25T23:55:50.318Z,70.15
2018-06-25T23:58:16.616Z,70.22
